Time;durP1;ratioP1;P1;durP2;ratioP2;P2;SDS_P1;SDS_P2;PMS_P1;PMS_P2;Temp;Humidity;BMP_temperature;BMP_pressure;BME280_temperature;BME280_humidity;BME280_pressure;Samples;Min_cycle;Max_cycle;Signal;HPM_P1;HPM_P2
2023/06/23 00:01:02;;;;;;;19.00;15.30;;;;;;;;;;107046;1251;61356;-80
2023/06/23 00:03:43;;;;;;;23.00;19.00;;;;;;;;;;107105;1251;61303;-80
2023/06/23 00:06:09;;;;;;;20.80;16.00;;;;;;;;;;107083;1251;62870;-80
2023/06/23 00:08:38;;;;;;;20.10;17.20;;;;;;;;;;107116;1254;61848;-80
2023/06/23 00:11:07;;;;;;;21.30;17.50;;;;;;;;;;107011;1251;61313;-80
2023/06/23 00:13:36;;;;;;;;;;;;;;;;;;107139;1251;61260;-80
2023/06/23 00:16:04;;;;;;;21.80;19.10;;;;;;;;;;107094;1254;61105;-80
2023/06/23 00:18:36;;;;;;;21.40;17.90;;;;;;;;;;107076;1251;61455;-80
2023/06/23 00:21:07;;;;;;;21.00;18.60;;;;;;;;;;107140;1251;61389;-80
2023/06/23 00:23:33;;;;;;;21.80;17.40;;;;;;;;;;107744;1252;61329;-80
2023/06/23 00:26:00;;;;;;;23.90;18.00;;;;;;;;;;107116;1251;61237;-80
2023/06/23 00:28:26;;;;;;;22.80;18.70;;;;;;;;;;107199;1251;61324;-80
2023/06/23 00:30:53;;;;;;;26.10;17.90;;;;;;;;;;107052;1254;59644;-80
2023/06/23 00:33:20;;;;;;;23.50;19.40;;;;;;;;;;107122;1250;61347;-80
2023/06/23 00:35:46;;;;;;;23.00;18.30;;;;;;;;;;107078;1251;61285;-80
2023/06/23 00:38:13;;;;;;;23.80;19.20;;;;;;;;;;107129;1252;61258;-80
2023/06/23 00:40:40;;;;;;;22.80;18.90;;;;;;;;;;107135;1251;61212;-80
2023/06/23 00:43:06;;;;;;;22.50;19.70;;;;;;;;;;107140;1254;62858;-80
2023/06/23 00:45:33;;;;;;;23.20;19.10;;;;;;;;;;107037;1251;61149;-80
2023/06/23 00:48:01;;;;;;;20.90;18.60;;;;;;;;;;107124;1251;61363;-80
2023/06/23 00:50:27;;;;;;;22.30;18.20;;;;;;;;;;107112;1254;60766;-80
2023/06/23 00:52:54;;;;;;;21.60;16.00;;;;;;;;;;107097;1250;61141;-80
2023/06/23 00:55:21;;;;;;;18.10;15.70;;;;;;;;;;107015;1251;62879;-81
2023/06/23 00:57:48;;;;;;;22.70;15.30;;;;;;;;;;107096;1251;61242;-80
2023/06/23 01:00:20;;;;;;;21.80;16.00;;;;;;;;;;107090;1251;61204;-80
2023/06/23 01:02:49;;;;;;;21.80;16.20;;;;;;;;;;107103;1251;62239;-80
2023/06/23 01:05:19;;;;;;;18.80;15.20;;;;;;;;;;107060;1251;59559;-80
2023/06/23 01:07:49;;;;;;;22.10;16.70;;;;;;;;;;107019;1251;61845;-80
2023/06/23 01:10:35;;;;;;;21.50;17.90;;;;;;;;;;107098;1251;61189;-80
2023/06/23 01:13:14;;;;;;;21.20;17.00;;;;;;;;;;107177;1251;61235;-80
2023/06/23 01:15:41;;;;;;;;;;;;;;;;;;107080;1254;61158;-80
2023/06/23 01:18:13;;;;;;;20.70;17.60;;;;;;;;;;107069;1254;61218;-81
2023/06/23 01:20:40;;;;;;;22.20;17.40;;;;;;;;;;107110;1254;62816;-81
2023/06/23 01:23:16;;;;;;;21.80;17.60;;;;;;;;;;107071;1254;61820;-81
2023/06/23 01:25:43;;;;;;;19.90;17.20;;;;;;;;;;107446;1251;61163;-81
2023/06/23 01:28:18;;;;;;;25.10;17.60;;;;;;;;;;107662;1252;61090;-81
2023/06/23 01:30:46;;;;;;;22.20;17.10;;;;;;;;;;107125;1254;61213;-81
2023/06/23 01:33:20;;;;;;;19.20;17.00;;;;;;;;;;107087;1255;61900;-81
2023/06/23 01:35:49;;;;;;;20.80;18.20;;;;;;;;;;106992;1251;61328;-81
2023/06/23 01:38:27;;;;;;;20.10;16.20;;;;;;;;;;107067;1251;61264;-81
2023/06/23 01:40:54;;;;;;;22.90;15.80;;;;;;;;;;107100;1251;61357;-81
2023/06/23 01:43:29;;;;;;;20.60;17.80;;;;;;;;;;107110;1251;61222;-81
2023/06/23 01:46:06;;;;;;;20.20;16.40;;;;;;;;;;107021;1255;62910;-81
2023/06/23 01:48:32;;;;;;;19.80;16.50;;;;;;;;;;107105;1253;61267;-81
2023/06/23 01:50:59;;;;;;;20.60;17.30;;;;;;;;;;107188;1251;61577;-81
2023/06/23 01:53:25;;;;;;;18.90;16.50;;;;;;;;;;107122;1254;61386;-81
2023/06/23 01:55:52;;;;;;;24.70;17.10;;;;;;;;;;107062;1250;61314;-80
2023/06/23 01:58:18;;;;;;;22.70;17.50;;;;;;;;;;107270;1251;62885;-80
2023/06/23 02:00:45;;;;;;;22.30;15.70;;;;;;;;;;107191;1251;61293;-80
2023/06/23 02:03:11;;;;;;;20.30;17.20;;;;;;;;;;107047;1251;61316;-80
2023/06/23 02:05:38;;;;;;;19.00;16.50;;;;;;;;;;107099;1251;61219;-80
2023/06/23 02:08:04;;;;;;;22.10;18.30;;;;;;;;;;107043;1251;61337;-80
2023/06/23 02:10:31;;;;;;;21.90;16.80;;;;;;;;;;107057;1253;61253;-80
2023/06/23 02:12:57;;;;;;;27.40;18.50;;;;;;;;;;107104;1251;61277;-80
2023/06/23 02:15:24;;;;;;;22.20;17.10;;;;;;;;;;107042;1251;61157;-80
2023/06/23 02:17:50;;;;;;;23.60;17.20;;;;;;;;;;107049;1256;61307;-80
2023/06/23 02:20:17;;;;;;;23.40;18.30;;;;;;;;;;107071;1251;60044;-80
2023/06/23 02:22:46;;;;;;;20.60;16.80;;;;;;;;;;107108;1251;61380;-81
2023/06/23 02:25:13;;;;;;;20.10;17.40;;;;;;;;;;107131;1253;61115;-81
2023/06/23 02:27:39;;;;;;;23.40;17.80;;;;;;;;;;107197;1254;61328;-81
2023/06/23 02:30:06;;;;;;;23.30;17.10;;;;;;;;;;109556;1251;58945;-81
2023/06/23 02:32:32;;;;;;;23.40;17.50;;;;;;;;;;108492;1251;61286;-81
2023/06/23 02:34:59;;;;;;;19.40;17.30;;;;;;;;;;107042;1251;61261;-81
2023/06/23 02:37:25;;;;;;;20.30;17.00;;;;;;;;;;107027;1251;61284;-81
2023/06/23 02:40:00;;;;;;;21.30;18.00;;;;;;;;;;106985;1252;61368;-81
2023/06/23 02:42:33;;;;;;;21.30;17.90;;;;;;;;;;107004;1251;61154;-81
2023/06/23 02:45:02;;;;;;;21.50;17.10;;;;;;;;;;106958;1251;61154;-80
2023/06/23 02:47:28;;;;;;;;;;;;;;;;;;106988;1251;62698;-81
2023/06/23 02:49:59;;;;;;;20.60;16.60;;;;;;;;;;107059;1251;59365;-81
2023/06/23 02:52:27;;;;;;;19.90;16.80;;;;;;;;;;107021;1251;61104;-81
2023/06/23 02:54:53;;;;;;;24.30;18.10;;;;;;;;;;107054;1254;61255;-80
2023/06/23 02:57:20;;;;;;;26.10;17.90;;;;;;;;;;107083;1251;60887;-81
2023/06/23 02:59:46;;;;;;;28.20;22.40;;;;;;;;;;107095;1251;61223;-80
2023/06/23 03:02:13;;;;;;;23.80;19.40;;;;;;;;;;107075;1254;61281;-80
2023/06/23 03:04:41;;;;;;;20.40;17.60;;;;;;;;;;107182;1251;61261;-80
2023/06/23 03:07:10;;;;;;;22.60;18.00;;;;;;;;;;107019;1253;61217;-81
2023/06/23 03:09:36;;;;;;;23.30;18.00;;;;;;;;;;107091;1251;61180;-81
2023/06/23 03:12:03;;;;;;;22.30;18.70;;;;;;;;;;107143;1251;61330;-81
2023/06/23 03:14:29;;;;;;;22.30;18.30;;;;;;;;;;107046;1251;61318;-81
2023/06/23 03:17:03;;;;;;;20.90;17.80;;;;;;;;;;107040;1253;61254;-81
2023/06/23 03:19:43;;;;;;;20.90;18.30;;;;;;;;;;107106;1254;61258;-81
2023/06/23 03:22:39;;;;;;;26.00;17.50;;;;;;;;;;107046;1251;61231;-80
2023/06/23 03:25:08;;;;;;;22.80;18.00;;;;;;;;;;107001;1250;63087;-81
2023/06/23 03:27:35;;;;;;;24.80;17.60;;;;;;;;;;107060;1254;61158;-81
2023/06/23 03:30:03;;;;;;;26.80;20.30;;;;;;;;;;107087;1251;61336;-80
2023/06/23 03:32:31;;;;;;;30.20;22.10;;;;;;;;;;107012;1251;61250;-81
2023/06/23 03:34:58;;;;;;;28.20;20.60;;;;;;;;;;107043;1251;62249;-80
2023/06/23 03:37:26;;;;;;;29.30;22.10;;;;;;;;;;106983;1251;61357;-81
2023/06/23 03:39:54;;;;;;;25.50;20.30;;;;;;;;;;106966;1251;61283;-80
2023/06/23 03:42:21;;;;;;;26.10;20.60;;;;;;;;;;106996;1253;61364;-81
2023/06/23 03:44:48;;;;;;;35.00;24.50;;;;;;;;;;106976;1251;61382;-80
2023/06/23 03:47:18;;;;;;;29.10;21.10;;;;;;;;;;107000;1253;61554;-81
2023/06/23 03:49:45;;;;;;;25.60;21.10;;;;;;;;;;106995;1250;62815;-80
2023/06/23 03:52:11;;;;;;;24.60;21.50;;;;;;;;;;107087;1253;61212;-81
2023/06/23 03:54:38;;;;;;;26.10;22.10;;;;;;;;;;107082;1251;61297;-81
2023/06/23 03:57:04;;;;;;;24.30;19.50;;;;;;;;;;107123;1251;61326;-81
2023/06/23 03:59:31;;;;;;;33.30;23.00;;;;;;;;;;107058;1251;61277;-81
2023/06/23 04:01:57;;;;;;;26.20;21.20;;;;;;;;;;107067;1251;61446;-81
2023/06/23 04:04:25;;;;;;;31.00;21.20;;;;;;;;;;107167;1254;61125;-80
2023/06/23 04:06:52;;;;;;;28.00;22.20;;;;;;;;;;107106;1252;61278;-81
2023/06/23 04:09:21;;;;;;;26.90;22.30;;;;;;;;;;107013;1254;61309;-81
2023/06/23 04:11:48;;;;;;;19.70;17.60;;;;;;;;;;107035;1254;61129;-81
2023/06/23 04:14:14;;;;;;;22.10;18.20;;;;;;;;;;107196;1251;61331;-81
2023/06/23 04:16:40;;;;;;;22.60;18.50;;;;;;;;;;107207;1254;61247;-82
2023/06/23 04:19:07;;;;;;;22.10;18.00;;;;;;;;;;107080;1253;61308;-82
2023/06/23 04:21:34;;;;;;;22.40;19.00;;;;;;;;;;107088;1254;61027;-81
2023/06/23 04:24:01;;;;;;;23.20;19.60;;;;;;;;;;107044;1252;61342;-81
2023/06/23 04:26:27;;;;;;;28.40;20.30;;;;;;;;;;107050;1251;61855;-81
2023/06/23 04:28:53;;;;;;;24.10;19.30;;;;;;;;;;106979;1253;61268;-82
2023/06/23 04:31:20;;;;;;;24.70;20.00;;;;;;;;;;106981;1253;61256;-81
2023/06/23 04:33:46;;;;;;;28.30;20.60;;;;;;;;;;106971;1251;62308;-81
2023/06/23 04:36:16;;;;;;;21.40;19.20;;;;;;;;;;106940;1251;61280;-81
2023/06/23 04:39:11;;;;;;;23.50;18.20;;;;;;;;;;107006;1253;61742;-82
2023/06/23 04:41:38;;;;;;;19.70;17.60;;;;;;;;;;106916;1255;59257;-82
2023/06/23 04:44:04;;;;;;;23.70;17.90;;;;;;;;;;106992;1255;63112;-81
2023/06/23 04:46:34;;;;;;;23.50;19.10;;;;;;;;;;106993;1255;61198;-81
2023/06/23 04:49:02;;;;;;;25.10;17.60;;;;;;;;;;107022;1252;61206;-82
2023/06/23 04:51:30;;;;;;;25.80;18.30;;;;;;;;;;107105;1251;61879;-82
2023/06/23 04:53:57;;;;;;;19.60;17.40;;;;;;;;;;107067;1251;63420;-81
2023/06/23 04:56:24;;;;;;;24.10;20.40;;;;;;;;;;107042;1254;61347;-81
2023/06/23 04:58:53;;;;;;;24.20;18.20;;;;;;;;;;107067;1250;61072;-82
2023/06/23 05:01:19;;;;;;;24.20;19.10;;;;;;;;;;107411;1254;59965;-81
2023/06/23 05:03:46;;;;;;;22.40;19.00;;;;;;;;;;107085;1251;61299;-80
2023/06/23 05:06:13;;;;;;;20.30;17.90;;;;;;;;;;107339;1251;61422;-80
2023/06/23 05:08:39;;;;;;;23.20;18.00;;;;;;;;;;107123;1254;61283;-80
2023/06/23 05:11:06;;;;;;;20.20;18.00;;;;;;;;;;107257;1253;61238;-80
2023/06/23 05:13:33;;;;;;;25.20;18.10;;;;;;;;;;107155;1250;61147;-80
2023/06/23 05:16:00;;;;;;;21.70;18.10;;;;;;;;;;107049;1256;63142;-80
2023/06/23 05:18:29;;;;;;;20.10;17.50;;;;;;;;;;107154;1251;61350;-80
2023/06/23 05:20:57;;;;;;;19.40;17.30;;;;;;;;;;107130;1253;61219;-80
2023/06/23 05:23:23;;;;;;;23.70;19.80;;;;;;;;;;107096;1255;61442;-80
2023/06/23 05:25:50;;;;;;;21.50;17.70;;;;;;;;;;107010;1253;62365;-80
2023/06/23 05:28:17;;;;;;;24.30;18.20;;;;;;;;;;107069;1251;61227;-80
2023/06/23 05:30:43;;;;;;;23.20;18.40;;;;;;;;;;107076;1251;61139;-80
2023/06/23 05:33:09;;;;;;;18.30;15.90;;;;;;;;;;107517;1253;61107;-80
2023/06/23 05:35:36;;;;;;;17.50;15.70;;;;;;;;;;107184;1253;61284;-80
2023/06/23 05:38:03;;;;;;;18.80;15.90;;;;;;;;;;107192;1253;61245;-80
2023/06/23 05:40:29;;;;;;;24.00;16.60;;;;;;;;;;107096;1251;59907;-80
2023/06/23 05:42:55;;;;;;;25.60;18.10;;;;;;;;;;107256;1253;61240;-80
2023/06/23 05:45:22;;;;;;;20.80;16.30;;;;;;;;;;107146;1251;61223;-80
2023/06/23 05:48:06;;;;;;;20.00;15.60;;;;;;;;;;107165;1253;61156;-80
2023/06/23 05:50:34;;;;;;;16.90;14.80;;;;;;;;;;107032;1251;61174;-80
2023/06/23 05:53:04;;;;;;;16.40;14.70;;;;;;;;;;107019;1250;61881;-81
2023/06/23 05:55:31;;;;;;;18.20;13.70;;;;;;;;;;107146;1255;61372;-81
2023/06/23 05:58:00;;;;;;;24.10;14.50;;;;;;;;;;107393;1251;61211;-82
2023/06/23 06:00:31;;;;;;;17.50;14.20;;;;;;;;;;107575;1250;61287;-82
2023/06/23 06:02:57;;;;;;;15.40;13.70;;;;;;;;;;107317;1251;61238;-81
2023/06/23 06:05:24;;;;;;;17.80;14.90;;;;;;;;;;107494;1254;61255;-81
2023/06/23 06:07:50;;;;;;;16.80;14.90;;;;;;;;;;107054;1253;59917;-81
2023/06/23 06:10:16;;;;;;;19.60;14.80;;;;;;;;;;107071;1253;61279;-81
2023/06/23 06:12:44;;;;;;;19.90;15.30;;;;;;;;;;107059;1251;61342;-82
2023/06/23 06:15:11;;;;;;;19.00;14.80;;;;;;;;;;107017;1250;61215;-81
2023/06/23 06:17:37;;;;;;;22.30;15.90;;;;;;;;;;107152;1251;61145;-81
2023/06/23 06:20:04;;;;;;;22.40;14.80;;;;;;;;;;107702;1253;61224;-82
2023/06/23 06:22:32;;;;;;;21.40;15.60;;;;;;;;;;107413;1253;61353;-81
2023/06/23 06:24:58;;;;;;;19.00;15.70;;;;;;;;;;107336;1250;61240;-81
2023/06/23 06:27:24;;;;;;;26.40;13.20;;;;;;;;;;107254;1253;61204;-81
2023/06/23 06:29:51;;;;;;;21.20;13.00;;;;;;;;;;107518;1254;61330;-81
2023/06/23 06:32:17;;;;;;;17.90;11.90;;;;;;;;;;107866;1253;61186;-81
2023/06/23 06:34:44;;;;;;;19.40;13.70;;;;;;;;;;107242;1255;62255;-81
2023/06/23 06:37:10;;;;;;;17.90;13.60;;;;;;;;;;107172;1256;59923;-81
2023/06/23 06:39:37;;;;;;;19.40;14.30;;;;;;;;;;107452;1253;61230;-82
2023/06/23 06:42:04;;;;;;;21.90;13.50;;;;;;;;;;107363;1251;61312;-81
2023/06/23 06:44:30;;;;;;;18.50;13.00;;;;;;;;;;107221;1254;61347;-81
2023/06/23 06:46:56;;;;;;;20.30;13.70;;;;;;;;;;107334;1254;61278;-82
2023/06/23 06:49:24;;;;;;;19.90;14.00;;;;;;;;;;107340;1255;61364;-82
2023/06/23 06:51:50;;;;;;;24.30;13.80;;;;;;;;;;107406;1254;61349;-81
2023/06/23 06:54:17;;;;;;;20.10;12.50;;;;;;;;;;107473;1251;61185;-81
2023/06/23 06:56:43;;;;;;;24.80;13.60;;;;;;;;;;107256;1251;61083;-82
2023/06/23 06:59:10;;;;;;;22.60;14.10;;;;;;;;;;107158;1256;62069;-82
2023/06/23 07:01:39;;;;;;;24.70;15.30;;;;;;;;;;107452;1253;61262;-81
2023/06/23 07:04:06;;;;;;;19.50;14.00;;;;;;;;;;107217;1250;61211;-81
2023/06/23 07:06:34;;;;;;;24.20;14.30;;;;;;;;;;107345;1255;61219;-82
2023/06/23 07:09:00;;;;;;;22.50;13.80;;;;;;;;;;107243;1253;164525;-81
2023/06/23 07:11:28;;;;;;;25.30;14.10;;;;;;;;;;107346;1251;61250;-81
2023/06/23 07:13:54;;;;;;;21.70;15.30;;;;;;;;;;107346;1253;61123;-81
2023/06/23 07:16:20;;;;;;;22.10;14.50;;;;;;;;;;107357;1251;61235;-81
2023/06/23 07:18:47;;;;;;;19.20;13.60;;;;;;;;;;107379;1251;61253;-81
2023/06/23 07:21:13;;;;;;;25.30;14.70;;;;;;;;;;107497;1253;61321;-81
2023/06/23 07:23:39;;;;;;;17.40;13.10;;;;;;;;;;107393;1251;61584;-81
2023/06/23 07:26:06;;;;;;;29.30;16.50;;;;;;;;;;107212;1251;61355;-81
2023/06/23 07:28:32;;;;;;;20.80;12.90;;;;;;;;;;107367;1251;63350;-81
2023/06/23 07:30:58;;;;;;;31.50;22.30;;;;;;;;;;107424;1253;61327;-81
2023/06/23 07:33:25;;;;;;;41.90;29.20;;;;;;;;;;107274;1251;61759;-81
2023/06/23 07:35:51;;;;;;;22.10;15.40;;;;;;;;;;107280;1251;61256;-81
2023/06/23 07:38:18;;;;;;;16.70;12.60;;;;;;;;;;107276;1252;61249;-81
2023/06/23 07:40:44;;;;;;;25.30;19.90;;;;;;;;;;107419;1251;61294;-81
2023/06/23 07:43:11;;;;;;;34.20;30.40;;;;;;;;;;107488;1251;61230;-82
2023/06/23 07:45:37;;;;;;;27.90;20.20;;;;;;;;;;107228;1251;63310;-81
2023/06/23 07:48:04;;;;;;;31.30;22.80;;;;;;;;;;107360;1253;61284;-81
2023/06/23 07:50:30;;;;;;;41.10;21.20;;;;;;;;;;107519;1253;61279;-82
2023/06/23 07:52:56;;;;;;;23.10;15.60;;;;;;;;;;107470;1253;61243;-82
2023/06/23 07:55:23;;;;;;;20.40;14.20;;;;;;;;;;107296;1255;61336;-82
2023/06/23 07:57:49;;;;;;;21.30;13.00;;;;;;;;;;107414;1253;61324;-82
2023/06/23 08:00:16;;;;;;;20.90;13.40;;;;;;;;;;107522;1254;59723;-81
2023/06/23 08:02:42;;;;;;;19.10;13.70;;;;;;;;;;107496;1251;61279;-82
2023/06/23 08:05:09;;;;;;;18.20;13.00;;;;;;;;;;107357;1252;61228;-82
2023/06/23 08:07:35;;;;;;;27.40;13.70;;;;;;;;;;107163;1255;61228;-82
2023/06/23 08:10:02;;;;;;;16.80;13.40;;;;;;;;;;107500;1251;61251;-82
2023/06/23 08:12:28;;;;;;;23.50;14.60;;;;;;;;;;107365;1251;60830;-81
2023/06/23 08:14:54;;;;;;;18.00;12.50;;;;;;;;;;107275;1253;61299;-82
2023/06/23 08:17:21;;;;;;;16.40;12.40;;;;;;;;;;107231;1251;61270;-82
2023/06/23 08:19:48;;;;;;;20.00;12.20;;;;;;;;;;107527;1251;61125;-81
2023/06/23 08:22:15;;;;;;;17.70;12.10;;;;;;;;;;107473;1250;61233;-81
2023/06/23 08:24:41;;;;;;;16.30;11.70;;;;;;;;;;107301;1251;62221;-82
2023/06/23 08:27:08;;;;;;;19.80;12.30;;;;;;;;;;107310;1253;61236;-82
2023/06/23 08:29:37;;;;;;;15.70;11.50;;;;;;;;;;107470;1253;59941;-82
2023/06/23 08:32:03;;;;;;;14.90;11.60;;;;;;;;;;107464;1253;61889;-82
2023/06/23 08:34:30;;;;;;;20.00;12.90;;;;;;;;;;107493;1251;61268;-82
2023/06/23 08:36:56;;;;;;;15.80;11.30;;;;;;;;;;107300;1253;59582;-82
2023/06/23 08:39:22;;;;;;;15.00;11.30;;;;;;;;;;107396;1251;63359;-83
2023/06/23 08:41:49;;;;;;;15.30;10.90;;;;;;;;;;107524;1255;59203;-82
2023/06/23 08:44:15;;;;;;;21.10;11.80;;;;;;;;;;107439;1256;61138;-82
2023/06/23 08:46:42;;;;;;;17.30;11.20;;;;;;;;;;107431;1255;60274;-82
2023/06/23 08:49:09;;;;;;;21.30;11.80;;;;;;;;;;107469;1251;61337;-82
2023/06/23 08:51:35;;;;;;;17.80;13.70;;;;;;;;;;107470;1251;61337;-82
2023/06/23 08:54:01;;;;;;;21.80;13.70;;;;;;;;;;107340;1255;61257;-82
2023/06/23 08:56:28;;;;;;;17.10;11.60;;;;;;;;;;107254;1253;61910;-82
2023/06/23 08:58:55;;;;;;;21.10;13.10;;;;;;;;;;107334;1253;59244;-81
2023/06/23 09:01:21;;;;;;;17.20;12.30;;;;;;;;;;107458;1256;61208;-82
2023/06/23 09:03:48;;;;;;;23.40;12.30;;;;;;;;;;107534;1254;61085;-81
2023/06/23 09:06:14;;;;;;;20.50;12.20;;;;;;;;;;107411;1252;61307;-82
2023/06/23 09:08:40;;;;;;;17.80;12.40;;;;;;;;;;107501;1251;61262;-81
2023/06/23 09:11:07;;;;;;;16.60;12.40;;;;;;;;;;108532;1250;59219;-82
2023/06/23 09:13:36;;;;;;;15.80;11.90;;;;;;;;;;108812;1251;61262;-81
2023/06/23 09:16:03;;;;;;;15.50;10.60;;;;;;;;;;107362;1250;61183;-82
2023/06/23 09:18:41;;;;;;;14.50;11.60;;;;;;;;;;107428;1253;61241;-82
2023/06/23 09:21:08;;;;;;;18.10;11.70;;;;;;;;;;107553;1253;62827;-82
2023/06/23 09:23:34;;;;;;;17.60;11.20;;;;;;;;;;107508;1255;61090;-82
2023/06/23 09:26:03;;;;;;;25.10;12.20;;;;;;;;;;107425;1256;61320;-82
2023/06/23 09:28:30;;;;;;;15.30;11.70;;;;;;;;;;107478;1256;61306;-82
2023/06/23 09:30:57;;;;;;;12.50;10.60;;;;;;;;;;107552;1255;63314;-82
2023/06/23 09:33:24;;;;;;;14.00;11.60;;;;;;;;;;107499;1253;62392;-82
2023/06/23 09:35:54;;;;;;;24.10;12.30;;;;;;;;;;107350;1253;59563;-81
2023/06/23 09:38:21;;;;;;;19.70;11.90;;;;;;;;;;107430;1254;61727;-82
2023/06/23 09:40:47;;;;;;;15.40;11.70;;;;;;;;;;107533;1254;61113;-82
2023/06/23 09:43:14;;;;;;;18.00;13.00;;;;;;;;;;107435;1251;61189;-81
2023/06/23 09:45:41;;;;;;;20.20;12.70;;;;;;;;;;107538;1253;62838;-82
2023/06/23 09:48:15;;;;;;;16.60;10.30;;;;;;;;;;107501;1251;61351;-81
2023/06/23 09:50:42;;;;;;;26.00;12.00;;;;;;;;;;107590;1251;61218;-82
2023/06/23 09:53:09;;;;;;;15.10;11.40;;;;;;;;;;107630;1251;61346;-82
2023/06/23 09:55:35;;;;;;;15.90;11.80;;;;;;;;;;107512;1251;59981;-82
2023/06/23 09:58:08;;;;;;;16.30;12.40;;;;;;;;;;107393;1250;61328;-83
2023/06/23 10:00:34;;;;;;;19.30;12.10;;;;;;;;;;107396;1253;61176;-83
2023/06/23 10:03:02;;;;;;;19.50;15.10;;;;;;;;;;107405;1255;61165;-82
2023/06/23 10:05:33;;;;;;;21.70;12.60;;;;;;;;;;107319;1250;61109;-82
2023/06/23 10:08:07;;;;;;;24.60;13.70;;;;;;;;;;107347;1253;61233;-82
2023/06/23 10:10:33;;;;;;;25.40;15.60;;;;;;;;;;107422;1251;63210;-82
2023/06/23 10:12:59;;;;;;;21.90;14.70;;;;;;;;;;107544;1255;61297;-83
2023/06/23 10:15:26;;;;;;;18.40;14.20;;;;;;;;;;107424;1250;61809;-82
2023/06/23 10:17:52;;;;;;;30.40;15.30;;;;;;;;;;107510;1253;59570;-83
2023/06/23 10:20:19;;;;;;;22.50;13.30;;;;;;;;;;107765;1256;61348;-82
2023/06/23 10:22:45;;;;;;;20.70;13.80;;;;;;;;;;107522;1253;61293;-83
2023/06/23 10:25:11;;;;;;;23.00;13.50;;;;;;;;;;107442;1257;61219;-83
2023/06/23 10:27:38;;;;;;;19.70;12.80;;;;;;;;;;107420;1254;61327;-82
2023/06/23 10:30:05;;;;;;;18.40;11.50;;;;;;;;;;107585;1251;61153;-83
2023/06/23 10:32:33;;;;;;;18.30;10.60;;;;;;;;;;107430;1251;59382;-82
2023/06/23 10:35:04;;;;;;;14.40;11.30;;;;;;;;;;107367;1251;61734;-82
2023/06/23 10:37:30;;;;;;;15.10;11.00;;;;;;;;;;109662;1251;59397;-83
2023/06/23 10:39:58;;;;;;;16.30;11.90;;;;;;;;;;109624;1251;59042;-83
2023/06/23 10:42:24;;;;;;;16.70;11.80;;;;;;;;;;109571;1255;59257;-83
2023/06/23 10:44:50;;;;;;;23.20;12.90;;;;;;;;;;107568;1254;59156;-82
2023/06/23 10:47:17;;;;;;;15.30;10.90;;;;;;;;;;107357;1251;61238;-82
2023/06/23 10:49:44;;;;;;;17.50;12.20;;;;;;;;;;107650;1253;61338;-83
2023/06/23 10:52:10;;;;;;;18.10;12.10;;;;;;;;;;107422;1253;61214;-83
2023/06/23 10:54:37;;;;;;;16.30;12.00;;;;;;;;;;107296;1251;61245;-82
2023/06/23 10:57:10;;;;;;;21.20;13.40;;;;;;;;;;107305;1251;61189;-82
2023/06/23 10:59:43;;;;;;;21.30;13.60;;;;;;;;;;107397;1251;62918;-82
2023/06/23 11:02:10;;;;;;;17.60;13.90;;;;;;;;;;107466;1253;61224;-83
2023/06/23 11:04:38;;;;;;;18.10;13.60;;;;;;;;;;107434;1251;61226;-82
2023/06/23 11:07:04;;;;;;;22.70;14.00;;;;;;;;;;107358;1256;61151;-82
2023/06/23 11:09:44;;;;;;;17.30;13.00;;;;;;;;;;107392;1255;61135;-82
2023/06/23 11:12:40;;;;;;;19.30;15.20;;;;;;;;;;107364;1251;61221;-82
2023/06/23 11:15:15;;;;;;;18.20;14.10;;;;;;;;;;107151;1251;61333;-82
2023/06/23 11:18:00;;;;;;;19.60;12.90;;;;;;;;;;107226;1251;61260;-82
2023/06/23 11:20:35;;;;;;;17.20;14.20;;;;;;;;;;107468;1253;61669;-82
2023/06/23 11:23:08;;;;;;;19.00;13.40;;;;;;;;;;107445;1251;59448;-82
2023/06/23 11:25:38;;;;;;;15.80;12.90;;;;;;;;;;107316;1251;61206;-82
2023/06/23 11:28:24;;;;;;;17.90;13.30;;;;;;;;;;107302;1253;61153;-82
2023/06/23 11:30:59;;;;;;;16.30;12.70;;;;;;;;;;107514;1253;61136;-82
2023/06/23 11:33:26;;;;;;;16.50;13.50;;;;;;;;;;107468;1251;61105;-82
2023/06/23 11:35:53;;;;;;;17.60;13.10;;;;;;;;;;107429;1254;61217;-82
2023/06/23 11:38:19;;;;;;;26.10;13.00;;;;;;;;;;107365;1254;61875;-82
2023/06/23 11:40:46;;;;;;;20.70;13.60;;;;;;;;;;107839;1253;61252;-82
2023/06/23 11:43:18;;;;;;;19.00;14.10;;;;;;;;;;107581;1251;61239;-82
2023/06/23 11:45:46;;;;;;;19.10;15.20;;;;;;;;;;107332;1251;61387;-82
2023/06/23 11:48:12;;;;;;;23.90;14.50;;;;;;;;;;107368;1256;61120;-82
2023/06/23 11:50:42;;;;;;;21.50;14.90;;;;;;;;;;107482;1257;61211;-81
2023/06/23 11:53:09;;;;;;;24.00;15.00;;;;;;;;;;107462;1255;60239;-81
2023/06/23 11:55:35;;;;;;;23.30;14.70;;;;;;;;;;107473;1254;61171;-81
2023/06/23 11:58:03;;;;;;;17.30;14.20;;;;;;;;;;107363;1249;61211;-82
2023/06/23 12:00:30;;;;;;;18.20;15.40;;;;;;;;;;107548;1251;61218;-81
2023/06/23 12:02:59;;;;;;;22.70;13.90;;;;;;;;;;107332;1251;61863;-82
2023/06/23 12:05:27;;;;;;;22.80;16.40;;;;;;;;;;107077;1254;61310;-82
2023/06/23 12:07:55;;;;;;;20.40;16.20;;;;;;;;;;107086;1251;61240;-82
2023/06/23 12:10:24;;;;;;;31.50;17.40;;;;;;;;;;107213;1256;61235;-82
2023/06/23 12:12:51;;;;;;;37.00;20.90;;;;;;;;;;107299;1249;61205;-82
2023/06/23 12:15:20;;;;;;;28.30;20.20;;;;;;;;;;107178;1254;61819;-81
2023/06/23 12:17:47;;;;;;;28.80;19.60;;;;;;;;;;107042;1251;61362;-82
2023/06/23 12:20:16;;;;;;;46.10;21.10;;;;;;;;;;107426;1251;61276;-82
2023/06/23 12:22:42;;;;;;;37.90;25.30;;;;;;;;;;107215;1251;61311;-82
2023/06/23 12:25:09;;;;;;;55.80;33.90;;;;;;;;;;107015;1254;61356;-82
2023/06/23 12:27:36;;;;;;;43.00;28.80;;;;;;;;;;107076;1252;61941;-82
2023/06/23 12:30:18;;;;;;;39.70;21.60;;;;;;;;;;107409;1255;61753;-83
2023/06/23 12:32:45;;;;;;;32.10;19.30;;;;;;;;;;107252;1251;61084;-82
2023/06/23 12:35:11;;;;;;;31.70;20.00;;;;;;;;;;107721;1251;60176;-82
2023/06/23 12:37:47;;;;;;;29.70;19.80;;;;;;;;;;107412;1251;61351;-83
2023/06/23 12:40:28;;;;;;;32.60;20.80;;;;;;;;;;107529;1254;61315;-82
2023/06/23 12:42:56;;;;;;;32.50;19.90;;;;;;;;;;107460;1251;61259;-82
2023/06/23 12:45:24;;;;;;;30.90;19.50;;;;;;;;;;107221;1251;61273;-82
2023/06/23 12:47:51;;;;;;;33.90;21.30;;;;;;;;;;107306;1251;61162;-82
2023/06/23 12:50:33;;;;;;;24.10;17.30;;;;;;;;;;107441;1251;61157;-82
2023/06/23 12:52:59;;;;;;;30.20;18.00;;;;;;;;;;108054;1251;62900;-82
2023/06/23 12:55:26;;;;;;;28.30;17.40;;;;;;;;;;107338;1251;61111;-82
2023/06/23 12:57:53;;;;;;;28.60;19.10;;;;;;;;;;107335;1252;61273;-81
2023/06/23 13:00:21;;;;;;;25.60;18.10;;;;;;;;;;107486;1254;61154;-83
2023/06/23 13:02:49;;;;;;;25.90;16.90;;;;;;;;;;107535;1251;59082;-83
2023/06/23 13:05:15;;;;;;;29.30;18.50;;;;;;;;;;107526;1254;63034;-82
2023/06/23 13:07:42;;;;;;;32.50;19.50;;;;;;;;;;107251;1251;61308;-83
2023/06/23 13:10:09;;;;;;;33.90;18.80;;;;;;;;;;107676;1249;60816;-83
2023/06/23 13:12:36;;;;;;;24.70;17.90;;;;;;;;;;107543;1251;61244;-82
2023/06/23 13:15:03;;;;;;;32.60;19.80;;;;;;;;;;107414;1251;61133;-82
2023/06/23 13:17:30;;;;;;;27.90;18.80;;;;;;;;;;107548;1254;63387;-81
2023/06/23 13:19:56;;;;;;;28.80;19.40;;;;;;;;;;107357;1256;61219;-82
2023/06/23 13:22:23;;;;;;;29.70;19.00;;;;;;;;;;107427;1251;60689;-82
2023/06/23 13:24:49;;;;;;;27.40;18.30;;;;;;;;;;107270;1251;61176;-82
2023/06/23 13:27:16;;;;;;;35.20;18.90;;;;;;;;;;107179;1255;59289;-83
2023/06/23 13:29:42;;;;;;;30.20;18.10;;;;;;;;;;107514;1253;61207;-82
2023/06/23 13:32:09;;;;;;;27.10;16.50;;;;;;;;;;107411;1251;61259;-82
2023/06/23 13:34:38;;;;;;;30.30;19.20;;;;;;;;;;107206;1251;61260;-83
2023/06/23 13:37:05;;;;;;;32.60;18.90;;;;;;;;;;107155;1251;61198;-82
2023/06/23 13:39:31;;;;;;;30.00;18.30;;;;;;;;;;107422;1251;61819;-83
2023/06/23 13:41:58;;;;;;;25.50;17.70;;;;;;;;;;107336;1251;60222;-82
2023/06/23 13:44:25;;;;;;;28.10;17.90;;;;;;;;;;107481;1251;61334;-82
2023/06/23 13:46:51;;;;;;;23.80;17.10;;;;;;;;;;109586;1251;59740;-82
2023/06/23 13:49:18;;;;;;;34.00;17.40;;;;;;;;;;109526;1251;60014;-82
2023/06/23 13:51:44;;;;;;;24.10;18.30;;;;;;;;;;109503;1251;58942;-82
2023/06/23 13:54:11;;;;;;;22.60;18.10;;;;;;;;;;109533;1250;58963;-83
2023/06/23 13:56:37;;;;;;;27.20;18.50;;;;;;;;;;109520;1251;58927;-82
2023/06/23 13:59:04;;;;;;;26.40;19.50;;;;;;;;;;109488;1251;59152;-80
2023/06/23 14:01:30;;;;;;;25.50;18.90;;;;;;;;;;108681;1251;59563;-84
2023/06/23 14:03:57;;;;;;;24.60;17.90;;;;;;;;;;107470;1251;61266;-80
2023/06/23 14:06:23;;;;;;;29.10;18.90;;;;;;;;;;107380;1251;61286;-80
2023/06/23 14:08:51;;;;;;;28.00;17.90;;;;;;;;;;107494;1254;61238;-80
2023/06/23 14:11:17;;;;;;;24.90;18.40;;;;;;;;;;107531;1251;61246;-80